createdAt,value
2022-12-25T00:01:09.144Z,92.27
2022-12-25T00:03:38.294Z,91.78
2022-12-25T00:06:06.372Z,92.02
2022-12-25T00:08:34.524Z,88.45
2022-12-25T00:11:07.785Z,90.48
2022-12-25T00:13:35.680Z,91.26
2022-12-25T00:16:12.801Z,92.09
2022-12-25T00:18:40.437Z,92.48
2022-12-25T00:21:08.381Z,92.44
2022-12-25T00:23:36.081Z,92.42
2022-12-25T00:26:10.486Z,92.39
2022-12-25T00:28:39.042Z,92.11
2022-12-25T00:31:09.199Z,92.35
2022-12-25T00:33:38.219Z,92.40
2022-12-25T00:36:06.720Z,92.15
2022-12-25T00:38:35.637Z,92.57
2022-12-25T00:41:07.719Z,93.16
2022-12-25T00:43:35.973Z,92.26
2022-12-25T00:46:05.048Z,92.28
2022-12-25T00:48:33.856Z,92.72
2022-12-25T00:51:04.796Z,93.40
2022-12-25T00:53:33.011Z,92.60
2022-12-25T00:56:04.762Z,93.08
2022-12-25T00:58:33.730Z,93.11
2022-12-25T01:01:01.980Z,93.20
2022-12-25T01:03:29.941Z,94.11
2022-12-25T01:06:00.729Z,93.19
2022-12-25T01:08:34.416Z,93.01
2022-12-25T01:11:08.432Z,91.41
2022-12-25T01:13:37.621Z,91.05
2022-12-25T01:16:10.317Z,92.93
2022-12-25T01:18:39.272Z,93.26
2022-12-25T01:21:13.499Z,93.03
2022-12-25T01:23:41.444Z,93.39
2022-12-25T01:26:11.635Z,93.69
2022-12-25T01:28:39.679Z,93.67
2022-12-25T01:31:12.619Z,94.09
2022-12-25T01:33:41.369Z,92.99
2022-12-25T01:36:20.614Z,92.32
2022-12-25T01:38:49.183Z,93.09
2022-12-25T01:41:19.292Z,93.93
2022-12-25T01:44:08.859Z,93.62
2022-12-25T01:46:36.860Z,93.70
2022-12-25T01:49:08.837Z,93.10
2022-12-25T01:51:43.559Z,93.34
2022-12-25T01:54:23.951Z,93.53
2022-12-25T01:56:53.863Z,93.94
2022-12-25T01:59:22.789Z,93.82
2022-12-25T02:01:51.138Z,93.68
2022-12-25T02:04:33.587Z,93.60
2022-12-25T02:07:01.294Z,93.45
2022-12-25T02:09:29.348Z,93.45
2022-12-25T02:11:57.061Z,93.60
2022-12-25T02:14:25.669Z,93.59
2022-12-25T02:17:08.594Z,93.69
2022-12-25T02:19:54.801Z,93.89
2022-12-25T02:22:50.437Z,93.24
2022-12-25T02:25:56.545Z,92.40
2022-12-25T02:28:24.470Z,91.79
2022-12-25T02:31:07.764Z,92.50
2022-12-25T02:33:44.114Z,91.34
2022-12-25T02:36:14.369Z,91.99
2022-12-25T02:38:42.524Z,92.87
2022-12-25T02:41:14.300Z,93.23
2022-12-25T02:43:43.842Z,93.32
2022-12-25T02:46:14.483Z,93.21
2022-12-25T02:48:46.166Z,93.44
2022-12-25T02:51:16.071Z,93.34
2022-12-25T02:53:46.008Z,93.25
2022-12-25T02:56:13.831Z,93.33
2022-12-25T02:58:42.803Z,94.27
2022-12-25T03:01:17.900Z,96.06
2022-12-25T03:03:47.012Z,95.55
2022-12-25T03:06:16.211Z,94.51
2022-12-25T03:08:46.802Z,94.23
2022-12-25T03:11:14.499Z,94.15
2022-12-25T03:13:43.466Z,94.09
2022-12-25T03:16:11.139Z,94.14
2022-12-25T03:18:39.036Z,94.19
2022-12-25T03:21:07.039Z,94.33
2022-12-25T03:23:35.564Z,94.15
2022-12-25T03:26:03.765Z,93.31
2022-12-25T03:28:31.725Z,93.61
2022-12-25T03:31:14.976Z,93.92
2022-12-25T03:33:56.036Z,94.05
2022-12-25T03:36:46.629Z,94.33
2022-12-25T03:39:24.096Z,94.29
2022-12-25T03:41:58.953Z,94.15
2022-12-25T03:44:39.724Z,94.05
2022-12-25T03:47:07.212Z,91.45
2022-12-25T03:49:45.682Z,92.97
2022-12-25T03:52:14.748Z,93.30
2022-12-25T03:54:43.408Z,93.32
2022-12-25T03:57:11.904Z,93.13
2022-12-25T03:59:39.759Z,93.18
2022-12-25T04:02:08.252Z,92.46
2022-12-25T04:04:36.621Z,92.81
2022-12-25T04:07:04.267Z,92.48
2022-12-25T04:09:31.890Z,92.80
2022-12-25T04:12:02.701Z,92.30
2022-12-25T04:14:30.732Z,92.69
2022-12-25T04:16:58.397Z,92.99
2022-12-25T04:19:26.268Z,93.12
2022-12-25T04:21:54.026Z,93.07
2022-12-25T04:24:21.666Z,93.18
2022-12-25T04:26:49.821Z,92.31
2022-12-25T04:29:17.483Z,92.36
2022-12-25T04:31:45.226Z,94.13
2022-12-25T04:34:13.247Z,93.28
2022-12-25T04:36:40.902Z,93.33
2022-12-25T04:39:09.809Z,92.96
2022-12-25T04:41:37.716Z,92.41
2022-12-25T04:44:05.442Z,93.41
2022-12-25T04:46:33.074Z,93.49
2022-12-25T04:49:01.045Z,93.60
2022-12-25T04:51:28.697Z,93.33
2022-12-25T04:53:56.495Z,93.61
2022-12-25T04:56:24.417Z,93.54
2022-12-25T04:58:52.012Z,93.91
2022-12-25T05:01:19.984Z,93.77
2022-12-25T05:03:48.163Z,94.55
2022-12-25T05:06:15.910Z,94.37
2022-12-25T05:08:43.529Z,93.97
2022-12-25T05:11:13.582Z,94.16
2022-12-25T05:13:41.362Z,93.83
2022-12-25T05:16:14.071Z,93.79
2022-12-25T05:18:42.085Z,93.63
2022-12-25T05:21:11.767Z,93.57
2022-12-25T05:23:39.812Z,93.46
2022-12-25T05:26:08.212Z,93.29
2022-12-25T05:28:36.058Z,93.56
2022-12-25T05:31:03.763Z,93.80
2022-12-25T05:33:31.781Z,93.80
2022-12-25T05:36:03.235Z,93.94
2022-12-25T05:38:31.447Z,93.80
2022-12-25T05:40:59.218Z,93.88
2022-12-25T05:43:28.533Z,94.04
2022-12-25T05:45:57.180Z,94.31
2022-12-25T05:48:24.874Z,93.90
2022-12-25T05:50:52.519Z,94.14
2022-12-25T05:53:20.509Z,94.17
2022-12-25T05:55:48.356Z,93.94
2022-12-25T05:58:16.048Z,94.29
2022-12-25T06:00:44.277Z,94.06
2022-12-25T06:03:12.147Z,94.00
2022-12-25T06:05:39.864Z,94.20
2022-12-25T06:08:08.023Z,94.04
2022-12-25T06:10:38.485Z,94.46
2022-12-25T06:13:06.203Z,94.24
2022-12-25T06:15:33.932Z,94.06
2022-12-25T06:18:02.220Z,93.77
2022-12-25T06:20:29.927Z,94.10
2022-12-25T06:22:57.513Z,94.62
2022-12-25T06:25:25.336Z,94.53
2022-12-25T06:27:53.247Z,94.08
2022-12-25T06:30:20.972Z,93.99
2022-12-25T06:32:49.065Z,94.04
2022-12-25T06:35:16.706Z,93.99
2022-12-25T06:37:44.336Z,93.79
2022-12-25T06:40:12.512Z,93.82
2022-12-25T06:42:40.532Z,93.80
2022-12-25T06:45:08.650Z,93.80
2022-12-25T06:47:37.777Z,93.87
2022-12-25T06:50:06.534Z,93.48
2022-12-25T06:52:34.237Z,93.76
2022-12-25T06:55:03.074Z,92.54
2022-12-25T06:57:30.762Z,93.43
2022-12-25T07:00:01.430Z,93.81
2022-12-25T07:02:31.329Z,94.35
2022-12-25T07:05:00.540Z,94.27
2022-12-25T07:07:28.445Z,94.37
2022-12-25T07:10:01.909Z,93.61
2022-12-25T07:12:29.676Z,94.66
2022-12-25T07:15:01.744Z,94.28
2022-12-25T07:17:30.104Z,94.19
2022-12-25T07:19:57.773Z,93.66
2022-12-25T07:22:29.253Z,93.98
2022-12-25T07:24:56.955Z,94.01
2022-12-25T07:27:24.952Z,94.06
2022-12-25T07:29:52.575Z,94.27
2022-12-25T07:32:20.227Z,94.50
2022-12-25T07:34:48.454Z,96.74
2022-12-25T07:37:16.232Z,97.28
2022-12-25T07:39:43.960Z,96.63
2022-12-25T07:42:21.736Z,96.42
2022-12-25T07:44:57.989Z,96.79
2022-12-25T07:47:26.008Z,97.41
2022-12-25T07:49:53.773Z,97.73
2022-12-25T07:52:21.415Z,96.97
2022-12-25T07:54:49.627Z,96.82
2022-12-25T07:57:17.451Z,96.00
2022-12-25T07:59:45.952Z,95.84
2022-12-25T08:02:14.426Z,95.48
2022-12-25T08:04:42.811Z,95.32
2022-12-25T08:07:14.191Z,95.19
2022-12-25T08:09:42.178Z,95.13
2022-12-25T08:12:09.825Z,94.67
2022-12-25T08:14:37.549Z,94.52
2022-12-25T08:17:05.480Z,94.08
2022-12-25T08:19:33.444Z,94.81
2022-12-25T08:22:01.096Z,94.65
2022-12-25T08:24:29.045Z,94.70
2022-12-25T08:26:56.837Z,94.49
2022-12-25T08:29:27.685Z,94.57
2022-12-25T08:32:02.065Z,94.46
2022-12-25T08:34:29.640Z,93.63
2022-12-25T08:36:57.723Z,94.65
2022-12-25T08:39:30.129Z,95.62
2022-12-25T08:41:58.067Z,94.30
2022-12-25T08:44:25.672Z,94.51
2022-12-25T08:46:55.909Z,93.62
2022-12-25T08:49:23.940Z,89.80
2022-12-25T08:51:51.709Z,94.28
2022-12-25T08:54:21.886Z,94.52
2022-12-25T08:56:50.115Z,93.84
2022-12-25T08:59:17.781Z,93.47
2022-12-25T09:01:45.489Z,93.82
2022-12-25T09:04:13.833Z,92.25
2022-12-25T09:07:31.254Z,89.60
2022-12-25T09:09:59.255Z,89.60
2022-12-25T09:12:26.542Z,89.54
2022-12-25T09:14:53.763Z,92.90
2022-12-25T09:17:21.277Z,93.60
2022-12-25T09:19:48.562Z,92.11
2022-12-25T09:22:15.753Z,90.51
2022-12-25T09:24:43.276Z,90.13
2022-12-25T09:27:10.573Z,90.24
2022-12-25T09:29:37.796Z,87.78
2022-12-25T09:32:06.072Z,87.29
2022-12-25T09:34:33.339Z,86.65
2022-12-25T09:37:00.787Z,87.33
2022-12-25T09:39:28.354Z,86.45
2022-12-25T09:41:58.808Z,86.05
2022-12-25T09:44:29.200Z,84.24
2022-12-25T09:47:03.723Z,84.98
2022-12-25T09:49:52.423Z,83.70
2022-12-25T09:52:34.891Z,82.29
2022-12-25T09:55:20.629Z,83.02
2022-12-25T09:57:51.712Z,84.14
2022-12-25T10:00:22.242Z,86.34
2022-12-25T10:03:10.385Z,85.47
2022-12-25T10:06:01.623Z,85.00
2022-12-25T10:08:57.796Z,85.60
2022-12-25T10:11:47.823Z,84.08
2022-12-25T10:14:46.401Z,83.21
2022-12-25T10:17:44.970Z,83.64
2022-12-25T10:20:15.289Z,82.35
2022-12-25T10:22:45.118Z,81.33
2022-12-25T10:25:21.059Z,78.54
2022-12-25T10:27:51.798Z,79.28
2022-12-25T10:30:21.941Z,74.30
2022-12-25T10:32:49.744Z,75.58
2022-12-25T10:35:19.723Z,76.81
2022-12-25T10:38:17.838Z,76.63
2022-12-25T10:41:21.268Z,71.80
2022-12-25T10:43:56.553Z,72.47
2022-12-25T10:46:27.231Z,75.20
2022-12-25T10:48:57.633Z,75.91
2022-12-25T10:51:32.582Z,75.72
2022-12-25T10:54:01.911Z,73.54
2022-12-25T10:56:29.210Z,72.13
2022-12-25T10:59:07.001Z,69.60
2022-12-25T11:01:34.854Z,71.42
2022-12-25T11:04:02.320Z,70.56
2022-12-25T11:06:32.089Z,70.47
2022-12-25T11:09:03.345Z,69.71
2022-12-25T11:11:30.894Z,69.16
2022-12-25T11:14:01.037Z,67.76
2022-12-25T11:16:35.418Z,67.69
2022-12-25T11:19:02.908Z,66.80
2022-12-25T11:21:32.938Z,64.22
2022-12-25T11:24:05.376Z,64.19
2022-12-25T11:26:56.600Z,62.93
2022-12-25T11:29:30.799Z,62.46
2022-12-25T11:32:00.044Z,61.23
2022-12-25T11:34:41.670Z,58.85
2022-12-25T11:37:14.657Z,57.28
2022-12-25T11:39:42.253Z,55.98
2022-12-25T11:42:24.936Z,54.33
2022-12-25T11:45:06.881Z,53.63
2022-12-25T11:47:50.719Z,52.56
2022-12-25T11:50:37.971Z,50.79
2022-12-25T11:53:07.661Z,53.64
2022-12-25T11:55:41.427Z,51.59
2022-12-25T11:58:33.105Z,53.13
2022-12-25T12:01:02.907Z,51.45
2022-12-25T12:03:36.500Z,49.50
2022-12-25T12:06:12.936Z,50.07
2022-12-25T12:08:40.847Z,50.65
2022-12-25T12:11:21.203Z,49.23
2022-12-25T12:13:48.616Z,51.42
2022-12-25T12:16:15.871Z,51.92
2022-12-25T12:18:49.760Z,52.03
2022-12-25T12:21:20.742Z,51.64
2022-12-25T12:24:07.191Z,52.88
2022-12-25T12:26:38.038Z,50.99
2022-12-25T12:29:08.952Z,51.40
2022-12-25T12:31:48.865Z,49.32
2022-12-25T12:34:27.913Z,56.17
2022-12-25T12:37:04.660Z,56.31
2022-12-25T12:39:41.820Z,57.72
2022-12-25T12:42:20.617Z,55.16
2022-12-25T12:44:49.635Z,52.11
2022-12-25T12:47:30.916Z,54.31
2022-12-25T12:49:59.658Z,52.20
2022-12-25T12:52:38.459Z,54.74
2022-12-25T12:55:11.196Z,54.22
2022-12-25T12:57:39.534Z,52.84
2022-12-25T13:00:17.419Z,52.61
2022-12-25T13:03:03.623Z,52.78
2022-12-25T13:05:40.936Z,52.88
2022-12-25T13:08:33.231Z,56.38
2022-12-25T13:11:24.025Z,56.61
2022-12-25T13:13:53.372Z,56.79
2022-12-25T13:16:27.684Z,55.77
2022-12-25T13:18:55.970Z,54.83
2022-12-25T13:21:29.981Z,58.19
2022-12-25T13:24:00.822Z,58.31
2022-12-25T13:26:28.642Z,58.97
2022-12-25T13:28:56.101Z,58.93
2022-12-25T13:31:28.341Z,58.86
2022-12-25T13:33:57.802Z,60.25
2022-12-25T13:36:31.391Z,60.08
2022-12-25T13:38:59.328Z,60.40
2022-12-25T13:41:41.211Z,61.29
2022-12-25T13:44:24.963Z,62.89
2022-12-25T13:46:52.492Z,62.95
2022-12-25T13:49:22.498Z,63.16
2022-12-25T13:51:50.640Z,64.10
2022-12-25T13:54:18.925Z,65.83
2022-12-25T13:56:49.659Z,65.83
2022-12-25T13:59:19.120Z,65.52
2022-12-25T14:01:48.298Z,66.75
2022-12-25T14:04:23.935Z,68.21
2022-12-25T14:06:52.277Z,67.82
2022-12-25T14:09:23.159Z,68.04
2022-12-25T14:11:51.463Z,68.02
2022-12-25T14:14:25.880Z,67.68
2022-12-25T14:16:58.835Z,68.32
2022-12-25T14:19:30.102Z,68.70
2022-12-25T14:22:01.160Z,69.44
2022-12-25T14:24:30.352Z,70.10
2022-12-25T14:27:06.907Z,68.58
2022-12-25T14:29:41.221Z,68.80
2022-12-25T14:32:15.160Z,69.49
2022-12-25T14:34:43.741Z,70.03
2022-12-25T14:37:20.154Z,70.60
2022-12-25T14:40:01.551Z,70.09
2022-12-25T14:42:31.493Z,69.88
2022-12-25T14:45:06.789Z,70.36
2022-12-25T14:47:53.651Z,71.42
2022-12-25T14:50:33.837Z,71.03
2022-12-25T14:53:01.436Z,71.22
2022-12-25T14:55:30.197Z,71.09
2022-12-25T14:58:00.248Z,72.69
2022-12-25T15:00:39.123Z,72.61
2022-12-25T15:05:43.458Z,73.31
2022-12-25T15:08:10.608Z,73.57
2022-12-25T15:13:27.088Z,74.14
2022-12-25T15:16:11.111Z,74.50
2022-12-25T15:18:41.277Z,74.93
2022-12-25T15:21:22.520Z,75.33
2022-12-25T15:23:50.054Z,75.67
2022-12-25T15:26:17.296Z,74.60
2022-12-25T15:28:44.522Z,75.55
2022-12-25T15:31:41.595Z,75.33
2022-12-25T15:34:27.019Z,75.74
2022-12-25T15:36:54.577Z,76.23
2022-12-25T15:39:21.810Z,76.26
2022-12-25T15:41:49.255Z,75.47
2022-12-25T15:44:23.729Z,75.76
2022-12-25T15:47:01.275Z,76.37
2022-12-25T15:49:29.008Z,76.64
2022-12-25T15:51:56.242Z,77.01
2022-12-25T15:54:24.173Z,76.72
2022-12-25T15:56:55.152Z,76.51
2022-12-25T15:59:22.944Z,77.00
2022-12-25T16:01:55.561Z,77.20
2022-12-25T16:04:24.405Z,77.20
2022-12-25T16:06:52.087Z,77.03
2022-12-25T16:09:19.958Z,76.32
2022-12-25T16:11:48.810Z,76.51
2022-12-25T16:14:16.240Z,76.28
2022-12-25T16:16:43.647Z,76.42
2022-12-25T16:19:11.161Z,76.36
2022-12-25T16:21:43.804Z,76.39
2022-12-25T16:24:11.578Z,76.28
2022-12-25T16:26:39.111Z,75.99
2022-12-25T16:29:07.911Z,75.95
2022-12-25T16:31:36.730Z,75.92
2022-12-25T16:34:05.549Z,75.95
2022-12-25T16:36:33.527Z,75.73
2022-12-25T16:39:01.213Z,76.11
2022-12-25T16:41:28.433Z,76.01
2022-12-25T16:43:55.657Z,76.02
2022-12-25T16:46:23.289Z,75.44
2022-12-25T16:48:50.598Z,74.35
2022-12-25T16:51:19.630Z,74.65
2022-12-25T16:53:47.413Z,75.17
2022-12-25T16:56:18.023Z,74.81
2022-12-25T16:58:46.056Z,75.32
2022-12-25T17:01:18.695Z,75.21
2022-12-25T17:03:48.244Z,75.30
2022-12-25T17:06:17.196Z,73.92
2022-12-25T17:08:44.422Z,73.86
2022-12-25T17:11:12.368Z,74.71
2022-12-25T17:13:39.932Z,72.93
2022-12-25T17:16:24.983Z,73.36
2022-12-25T17:19:00.979Z,73.18
2022-12-25T17:21:28.914Z,73.59
2022-12-25T17:24:02.410Z,72.84
2022-12-25T17:26:31.970Z,72.88
2022-12-25T17:28:59.886Z,72.50
2022-12-25T17:31:27.448Z,72.76
2022-12-25T17:33:54.788Z,72.95
2022-12-25T17:36:23.369Z,72.57
2022-12-25T17:38:50.642Z,72.29
2022-12-25T17:41:19.433Z,72.18
2022-12-25T17:43:48.028Z,72.06
2022-12-25T17:46:25.268Z,72.28
2022-12-25T17:48:54.990Z,72.07
2022-12-25T17:51:24.693Z,72.12
2022-12-25T17:53:54.238Z,72.04
2022-12-25T17:56:22.813Z,71.76
2022-12-25T17:58:54.938Z,71.85
2022-12-25T18:01:23.561Z,71.78
2022-12-25T18:03:51.826Z,71.88
2022-12-25T18:06:21.809Z,71.81
2022-12-25T18:08:53.836Z,71.94
2022-12-25T18:11:24.679Z,71.44
2022-12-25T18:13:55.167Z,71.48
2022-12-25T18:16:24.435Z,71.35
2022-12-25T18:18:52.992Z,70.49
2022-12-25T18:21:21.899Z,70.91
2022-12-25T18:23:54.895Z,71.03
2022-12-25T18:26:22.149Z,71.67
2022-12-25T18:28:50.320Z,70.68
2022-12-25T18:31:20.574Z,71.41
2022-12-25T18:33:48.075Z,71.40
2022-12-25T18:36:18.545Z,71.42
2022-12-25T18:38:46.419Z,70.86
2022-12-25T18:41:13.826Z,71.41
2022-12-25T18:43:53.218Z,71.51
2022-12-25T18:46:27.075Z,71.03
2022-12-25T18:48:56.824Z,71.84
2022-12-25T18:51:26.079Z,72.59
2022-12-25T18:54:03.959Z,72.35
2022-12-25T18:56:31.192Z,72.98
2022-12-25T18:59:01.313Z,71.96
2022-12-25T19:01:31.970Z,73.29
2022-12-25T19:04:05.018Z,73.00
2022-12-25T19:06:37.542Z,71.71
2022-12-25T19:09:05.877Z,72.25
2022-12-25T19:11:33.442Z,72.80
2022-12-25T19:14:01.856Z,72.69
2022-12-25T19:16:31.262Z,71.99
2022-12-25T19:19:01.615Z,72.47
2022-12-25T19:21:29.290Z,72.18
2022-12-25T19:23:56.502Z,72.82
2022-12-25T19:26:26.747Z,72.92
2022-12-25T19:28:56.978Z,71.92
2022-12-25T19:31:27.522Z,72.43
2022-12-25T19:33:54.809Z,71.45
2022-12-25T19:36:30.889Z,72.17
2022-12-25T19:39:01.279Z,71.68
2022-12-25T19:41:34.601Z,72.72
2022-12-25T19:44:02.185Z,72.92
2022-12-25T19:46:37.298Z,72.24
2022-12-25T19:49:16.791Z,73.15
2022-12-25T19:51:47.007Z,73.36
2022-12-25T19:54:15.951Z,72.56
2022-12-25T19:56:43.387Z,73.00
2022-12-25T19:59:12.057Z,71.74
2022-12-25T20:01:39.669Z,71.55
2022-12-25T20:04:08.245Z,71.64
2022-12-25T20:06:39.095Z,71.28
2022-12-25T20:09:09.322Z,70.94
2022-12-25T20:11:37.583Z,70.29
2022-12-25T20:14:05.884Z,69.61
2022-12-25T20:16:35.781Z,70.19
2022-12-25T20:19:03.119Z,70.88
2022-12-25T20:21:30.423Z,70.79
2022-12-25T20:23:58.426Z,70.89
2022-12-25T20:26:28.403Z,71.52
2022-12-25T20:28:55.671Z,70.80
2022-12-25T20:31:25.284Z,70.60
2022-12-25T20:33:53.246Z,71.55
2022-12-25T20:36:22.414Z,70.91
2022-12-25T20:38:50.501Z,70.97
2022-12-25T20:41:30.252Z,71.14
2022-12-25T20:43:58.213Z,71.42
2022-12-25T20:46:25.936Z,71.54
2022-12-25T20:48:53.951Z,70.80
2022-12-25T20:51:26.832Z,69.87
2022-12-25T20:53:54.763Z,70.97
2022-12-25T20:56:24.487Z,69.96
2022-12-25T20:58:56.641Z,69.47
2022-12-25T21:01:24.680Z,69.05
2022-12-25T21:03:52.515Z,69.84
2022-12-25T21:06:22.969Z,69.98
2022-12-25T21:08:52.770Z,69.96
2022-12-25T21:11:20.036Z,70.48
2022-12-25T21:13:47.639Z,70.64
2022-12-25T21:16:17.979Z,70.90
2022-12-25T21:18:45.630Z,70.98
2022-12-25T21:21:13.250Z,69.73
2022-12-25T21:23:43.096Z,70.30
2022-12-25T21:26:35.059Z,70.73
2022-12-25T21:29:08.771Z,69.34
2022-12-25T21:31:36.236Z,70.00
2022-12-25T21:34:06.650Z,69.67
2022-12-25T21:36:37.558Z,70.08
2022-12-25T21:39:06.945Z,70.08
2022-12-25T21:41:36.488Z,70.61
2022-12-25T21:44:05.805Z,70.92
2022-12-25T21:46:35.639Z,70.78
2022-12-25T21:49:03.136Z,71.21
2022-12-25T21:51:32.354Z,71.45
2022-12-25T21:54:00.386Z,71.02
2022-12-25T21:56:32.159Z,71.36
2022-12-25T21:59:00.434Z,72.22
2022-12-25T22:01:28.347Z,71.94
2022-12-25T22:03:56.442Z,72.43
2022-12-25T22:06:23.683Z,73.10
2022-12-25T22:08:50.971Z,74.31
2022-12-25T22:11:18.688Z,74.20
2022-12-25T22:13:45.963Z,74.33
2022-12-25T22:16:15.800Z,75.22
2022-12-25T22:18:45.079Z,75.54
2022-12-25T22:21:21.788Z,75.74
2022-12-25T22:23:51.670Z,75.92
2022-12-25T22:26:20.973Z,76.33
2022-12-25T22:28:50.073Z,74.83
2022-12-25T22:31:17.416Z,74.85
2022-12-25T22:33:44.720Z,75.18
2022-12-25T22:36:16.259Z,75.07
2022-12-25T22:38:43.503Z,74.64
2022-12-25T22:41:10.750Z,74.99
2022-12-25T22:44:15.264Z,75.66
2022-12-25T22:46:25.509Z,75.72
2022-12-25T22:48:53.104Z,76.22
2022-12-25T22:51:20.391Z,76.41
2022-12-25T22:53:47.688Z,78.18
2022-12-25T22:56:15.376Z,77.41
2022-12-25T22:58:42.632Z,78.42
2022-12-25T23:01:10.905Z,78.27
2022-12-25T23:03:38.824Z,78.45
2022-12-25T23:06:09.239Z,78.09
2022-12-25T23:08:36.491Z,77.93
2022-12-25T23:11:05.551Z,78.29
2022-12-25T23:13:32.777Z,78.03
2022-12-25T23:16:00.209Z,78.36
2022-12-25T23:18:27.897Z,79.66
2022-12-25T23:20:59.755Z,78.36
2022-12-25T23:23:27.040Z,78.87
2022-12-25T23:25:54.530Z,79.69
2022-12-25T23:28:22.046Z,79.51
2022-12-25T23:30:49.760Z,80.49
2022-12-25T23:33:19.852Z,79.92
2022-12-25T23:35:47.089Z,80.41
2022-12-25T23:38:14.326Z,80.23
2022-12-25T23:40:41.854Z,79.58
2022-12-25T23:43:09.073Z,79.50
2022-12-25T23:45:36.308Z,79.00
2022-12-25T23:48:03.893Z,81.15
2022-12-25T23:50:31.127Z,81.17
2022-12-25T23:52:58.378Z,80.00
2022-12-25T23:55:25.918Z,79.80
2022-12-25T23:57:53.196Z,80.35
